Pagina principale
METAR-TAF:

METAR-TAF

Aeroporti :

Ardabil, Iran

latitudine: 38-19-35N, longitudine: 048-25-28E, altezza: 1315 m

Osservazione

Il bollettino è stato emesso 49 minuti fa, alle 04:00 UTC
Vento 19 kt da sud
Temperature 6°C
Umidità 65%
Pressione 1004 hPa
Visibilità 10 km o più
Poco nuvoloso ad un'altezza di 4000 ft
Nubi sparse ad un'altezza di 8000 ft
Nuvoloso ad un'altezza di 17000 ft

METAR: OITL 300400Z 19019KT 9999 FEW040 SCT080 BKN170 06/M00 Q1004

Ora: 09:19 (04:49 UTC)


TAF: mancante

Osservazioni e previsioni meteorologiche di più di 4000 aeroporti (messaggi METAR e TAF).

Le stazioni disponibili sono rappresentate dai dischi gialli e rossi sulla carta.

Puntare il mouse per vedere il nome della stazione.

Clicca sopra per visualizzare le osservazioni e previsioni meteorologiche.

Per cambiare la mappa : fare clic sui pulsanti verdi con una croce nera per ingrandire, il pulsante verde con un trattino per diminuire, o sulla freccia verde per le mappe adiacenti.


METAR-TAF: